createdAt,value
2022-09-22T00:00:02.499Z,1014.59
2022-09-22T00:01:02.420Z,1014.57
2022-09-22T00:02:03.267Z,1014.58
2022-09-22T00:03:03.085Z,1014.63
2022-09-22T00:04:03.527Z,1014.59
2022-09-22T00:05:03.329Z,1014.55
2022-09-22T00:06:03.348Z,1014.55
2022-09-22T00:07:03.884Z,1014.51
2022-09-22T00:08:03.281Z,1014.59
2022-09-22T00:09:03.833Z,1014.55
2022-09-22T00:10:03.342Z,1014.58
2022-09-22T00:11:03.697Z,1014.56
2022-09-22T00:12:03.243Z,1014.61
2022-09-22T00:13:02.638Z,1014.55
2022-09-22T00:14:03.080Z,1014.59
2022-09-22T00:15:02.718Z,1014.59
2022-09-22T00:16:03.055Z,1014.57
2022-09-22T00:17:03.026Z,1014.58
2022-09-22T00:18:03.187Z,1014.56
2022-09-22T00:19:03.455Z,1014.57
2022-09-22T00:20:03.599Z,1014.55
2022-09-22T00:21:03.239Z,1014.55
2022-09-22T00:22:03.626Z,1014.56
2022-09-22T00:23:03.248Z,1014.58
2022-09-22T00:24:03.746Z,1014.60
2022-09-22T00:25:03.197Z,1014.63
2022-09-22T00:26:03.502Z,1014.57
2022-09-22T00:27:03.030Z,1014.56
2022-09-22T00:28:02.475Z,1014.55
2022-09-22T00:29:02.680Z,1014.53
2022-09-22T00:30:02.412Z,1014.53
2022-09-22T00:31:02.852Z,1014.58
2022-09-22T00:32:07.099Z,1014.55
2022-09-22T00:33:03.026Z,1014.56
2022-09-22T00:34:03.204Z,1014.52
2022-09-22T00:35:02.842Z,1014.51
2022-09-22T00:36:03.326Z,1014.56
2022-09-22T00:37:03.542Z,1014.55
2022-09-22T00:38:03.487Z,1014.54
2022-09-22T00:39:03.062Z,1014.57
2022-09-22T00:40:03.533Z,1014.56
2022-09-22T00:41:03.013Z,1014.56
2022-09-22T00:42:03.175Z,1014.56
2022-09-22T00:43:03.568Z,1014.49
2022-09-22T00:44:03.339Z,1014.59
2022-09-22T00:45:03.727Z,1014.53
2022-09-22T00:46:04.027Z,1014.48
2022-09-22T00:47:02.715Z,1014.58
2022-09-22T00:48:03.173Z,1014.59
2022-09-22T00:49:02.634Z,1014.59
2022-09-22T00:50:03.093Z,1014.61
2022-09-22T00:51:02.809Z,1014.59
2022-09-22T00:52:03.377Z,1014.54
2022-09-22T00:53:03.804Z,1014.62
2022-09-22T00:54:03.221Z,1014.56
2022-09-22T00:55:03.533Z,1014.56
2022-09-22T00:56:03.347Z,1014.51
2022-09-22T00:57:02.874Z,1014.55
2022-09-22T00:58:03.329Z,1014.49
2022-09-22T00:59:03.006Z,1014.53
2022-09-22T01:00:02.785Z,1014.48
2022-09-22T01:01:03.446Z,1014.52
2022-09-22T01:02:02.063Z,1014.52
2022-09-22T01:03:01.934Z,1014.51
2022-09-22T01:04:02.333Z,1014.51
2022-09-22T01:05:02.099Z,1014.43
2022-09-22T01:06:01.942Z,1014.46
2022-09-22T01:07:02.564Z,1014.45
2022-09-22T01:08:02.325Z,1014.46
2022-09-22T01:09:02.741Z,1014.44
2022-09-22T01:10:02.463Z,1014.40
2022-09-22T01:11:02.263Z,1014.43
2022-09-22T01:12:01.721Z,1014.42
2022-09-22T01:13:02.109Z,1014.46
2022-09-22T01:14:01.982Z,1014.42
2022-09-22T01:15:01.767Z,1014.44
2022-09-22T01:16:02.229Z,1014.42
2022-09-22T01:17:02.070Z,1014.40
2022-09-22T01:18:01.902Z,1014.39
2022-09-22T01:19:01.571Z,1014.35
2022-09-22T01:20:01.979Z,1014.35
2022-09-22T01:21:01.810Z,1014.38
2022-09-22T01:22:02.233Z,1014.37
2022-09-22T01:23:02.659Z,1014.29
2022-09-22T01:24:02.347Z,1014.29
2022-09-22T01:25:02.541Z,1014.30
2022-09-22T01:26:02.351Z,1014.31
2022-09-22T01:27:01.886Z,1014.30
2022-09-22T01:28:01.666Z,1014.22
2022-09-22T01:29:02.070Z,1014.29
2022-09-22T01:30:01.862Z,1014.29
2022-09-22T01:31:01.786Z,1014.25
2022-09-22T01:32:02.302Z,1014.23
2022-09-22T01:33:02.724Z,1014.26
2022-09-22T01:34:02.194Z,1014.25
2022-09-22T01:35:02.633Z,1014.21
2022-09-22T01:36:02.099Z,1014.23
2022-09-22T01:37:02.527Z,1014.23
2022-09-22T01:38:02.306Z,1014.22
2022-09-22T01:39:02.721Z,1014.24
2022-09-22T01:40:02.492Z,1014.20
2022-09-22T01:41:02.967Z,1014.17
2022-09-22T01:42:02.512Z,1014.22
2022-09-22T01:43:02.066Z,1014.15
2022-09-22T01:44:02.448Z,1014.22
2022-09-22T01:45:01.986Z,1014.14
2022-09-22T01:46:02.519Z,1014.19
2022-09-22T01:47:02.826Z,1014.19
2022-09-22T01:48:02.596Z,1014.19
2022-09-22T01:49:03.002Z,1014.18
2022-09-22T01:50:02.805Z,1014.25
2022-09-22T01:51:03.112Z,1014.21
2022-09-22T01:52:02.411Z,1014.23
2022-09-22T01:53:02.174Z,1014.21
2022-09-22T01:54:02.595Z,1014.18
2022-09-22T01:55:02.037Z,1014.18
2022-09-22T01:56:02.464Z,1014.20
2022-09-22T01:57:01.696Z,1014.21
2022-09-22T01:58:01.518Z,1014.21
2022-09-22T01:59:01.604Z,1014.13
2022-09-22T02:00:02.102Z,1014.17
2022-09-22T02:01:01.661Z,1014.19
2022-09-22T02:02:02.838Z,1014.17
2022-09-22T02:03:02.797Z,1014.15
2022-09-22T02:04:02.647Z,1014.19
2022-09-22T02:05:03.129Z,1014.15
2022-09-22T02:06:03.288Z,1014.17
2022-09-22T02:07:02.526Z,1014.18
2022-09-22T02:08:02.259Z,1014.14
2022-09-22T02:09:02.654Z,1014.13
2022-09-22T02:10:02.367Z,1014.13
2022-09-22T02:11:02.448Z,1014.17
2022-09-22T02:12:02.767Z,1014.18
2022-09-22T02:13:02.484Z,1014.14
2022-09-22T02:14:02.586Z,1014.13
2022-09-22T02:15:03.063Z,1014.11
2022-09-22T02:16:02.663Z,1014.13
2022-09-22T02:17:03.364Z,1014.12
2022-09-22T02:18:02.784Z,1014.09
2022-09-22T02:19:12.397Z,1014.06
2022-09-22T02:20:03.234Z,1014.07
2022-09-22T02:21:02.972Z,1014.04
2022-09-22T02:22:02.403Z,1014.04
2022-09-22T02:23:02.094Z,1014.11
2022-09-22T02:24:02.493Z,1014.06
2022-09-22T02:25:02.319Z,1014.08
2022-09-22T02:26:02.042Z,1013.98
2022-09-22T02:27:02.459Z,1014.00
2022-09-22T02:28:02.029Z,1014.03
2022-09-22T02:29:02.048Z,1014.00
2022-09-22T02:30:02.449Z,1014.05
2022-09-22T02:31:20.444Z,1014.04
2022-09-22T02:32:03.144Z,1014.09
2022-09-22T02:33:02.876Z,1014.01
2022-09-22T02:34:02.654Z,1013.97
2022-09-22T02:35:03.042Z,1013.97
2022-09-22T02:36:02.662Z,1014.01
2022-09-22T02:37:03.143Z,1013.95
2022-09-22T02:38:02.878Z,1013.92
2022-09-22T02:39:03.213Z,1013.97
2022-09-22T02:40:02.953Z,1014.02
2022-09-22T02:41:03.247Z,1014.02
2022-09-22T02:42:03.282Z,1013.95
2022-09-22T02:43:03.269Z,1014.01
2022-09-22T02:44:02.732Z,1014.00
2022-09-22T02:45:03.235Z,1013.91
2022-09-22T02:46:02.949Z,1013.97
2022-09-22T02:47:02.549Z,1013.96
2022-09-22T02:48:02.271Z,1013.91
2022-09-22T02:49:02.102Z,1013.90
2022-09-22T02:50:02.102Z,1013.94
2022-09-22T02:51:02.615Z,1013.93
2022-09-22T02:52:02.759Z,1013.88
2022-09-22T02:53:02.504Z,1013.88
2022-09-22T02:54:02.914Z,1013.84
2022-09-22T02:55:02.303Z,1013.84
2022-09-22T02:56:02.635Z,1013.84
2022-09-22T02:57:02.860Z,1013.81
2022-09-22T02:58:02.664Z,1013.85
2022-09-22T02:59:02.555Z,1013.84
2022-09-22T03:00:02.941Z,1013.81
2022-09-22T03:01:02.773Z,1013.84
2022-09-22T03:02:03.198Z,1013.73
2022-09-22T03:03:02.919Z,1013.74
2022-09-22T03:04:02.663Z,1013.72
2022-09-22T03:05:03.252Z,1013.84
2022-09-22T03:06:03.091Z,1013.79
2022-09-22T03:07:02.591Z,1013.74
2022-09-22T03:08:02.348Z,1013.73
2022-09-22T03:09:02.007Z,1013.68
2022-09-22T03:10:02.135Z,1013.67
2022-09-22T03:11:02.562Z,1013.71
2022-09-22T03:12:02.710Z,1013.67
2022-09-22T03:13:16.560Z,1013.67
2022-09-22T03:14:02.414Z,1013.67
2022-09-22T03:15:02.381Z,1013.66
2022-09-22T03:16:02.830Z,1013.64
2022-09-22T03:17:03.136Z,1013.64
2022-09-22T03:18:02.710Z,1013.66
2022-09-22T03:19:02.831Z,1013.63
2022-09-22T03:20:02.514Z,1013.65
2022-09-22T03:21:02.934Z,1013.62
2022-09-22T03:22:02.796Z,1013.59
2022-09-22T03:23:02.967Z,1013.67
2022-09-22T03:24:02.731Z,1013.67
2022-09-22T03:25:03.151Z,1013.62
2022-09-22T03:26:02.655Z,1013.68
2022-09-22T03:27:02.811Z,1013.67
2022-09-22T03:28:02.601Z,1013.63
2022-09-22T03:29:02.639Z,1013.64
2022-09-22T03:30:02.342Z,1013.65
2022-09-22T03:31:02.214Z,1013.61
2022-09-22T03:32:01.941Z,1013.59
2022-09-22T03:33:02.412Z,1013.62
2022-09-22T03:34:02.251Z,1013.61
2022-09-22T03:35:01.960Z,1013.57
2022-09-22T03:36:02.387Z,1013.56
2022-09-22T03:37:01.861Z,1013.56
2022-09-22T03:38:02.276Z,1013.62
2022-09-22T03:39:01.969Z,1013.62
2022-09-22T03:40:02.325Z,1013.60
2022-09-22T03:41:02.060Z,1013.66
2022-09-22T03:42:02.450Z,1013.66
2022-09-22T03:43:02.945Z,1013.65
2022-09-22T03:44:02.550Z,1013.61
2022-09-22T03:45:03.082Z,1013.66
2022-09-22T03:46:02.690Z,1013.64
2022-09-22T03:47:02.532Z,1013.59
2022-09-22T03:48:02.988Z,1013.63
2022-09-22T03:49:02.839Z,1013.60
2022-09-22T03:50:02.663Z,1013.60
2022-09-22T03:51:03.145Z,1013.59
2022-09-22T03:52:02.550Z,1013.54
2022-09-22T03:53:02.961Z,1013.58
2022-09-22T03:54:02.678Z,1013.56
2022-09-22T03:55:03.115Z,1013.57
2022-09-22T03:56:02.791Z,1013.56
2022-09-22T03:57:02.271Z,1013.56
2022-09-22T03:58:02.619Z,1013.58
2022-09-22T03:59:02.611Z,1013.57
2022-09-22T04:00:02.352Z,1013.58
2022-09-22T04:01:02.351Z,1013.59
2022-09-22T04:02:02.891Z,1013.56
2022-09-22T04:03:02.710Z,1013.61
2022-09-22T04:04:02.991Z,1013.59
2022-09-22T04:05:02.670Z,1013.56
2022-09-22T04:06:03.100Z,1013.60
2022-09-22T04:07:07.087Z,1013.61
2022-09-22T04:08:02.257Z,1013.59
2022-09-22T04:09:02.704Z,1013.56
2022-09-22T04:10:02.305Z,1013.55
2022-09-22T04:11:02.581Z,1013.58
2022-09-22T04:12:02.282Z,1013.59
2022-09-22T04:13:02.453Z,1013.55
2022-09-22T04:14:02.313Z,1013.53
2022-09-22T04:15:02.769Z,1013.53
2022-09-22T04:16:02.247Z,1013.51
2022-09-22T04:17:02.615Z,1013.51
2022-09-22T04:18:02.935Z,1013.50
2022-09-22T04:19:02.969Z,1013.50
2022-09-22T04:20:02.688Z,1013.55
2022-09-22T04:21:03.035Z,1013.53
2022-09-22T04:22:02.743Z,1013.54
2022-09-22T04:23:03.143Z,1013.50
2022-09-22T04:24:02.869Z,1013.51
2022-09-22T04:25:03.274Z,1013.53
2022-09-22T04:26:02.734Z,1013.47
2022-09-22T04:27:19.054Z,1013.50
2022-09-22T04:28:05.581Z,1013.51
2022-09-22T04:29:02.243Z,1013.45
2022-09-22T04:30:02.672Z,1013.42
2022-09-22T04:31:02.231Z,1013.44
2022-09-22T04:32:02.649Z,1013.48
2022-09-22T04:33:02.991Z,1013.48
2022-09-22T04:34:06.910Z,1013.53
2022-09-22T04:35:03.015Z,1013.49
2022-09-22T04:36:02.710Z,1013.55
2022-09-22T04:37:03.189Z,1013.52
2022-09-22T04:38:03.574Z,1013.56
2022-09-22T04:39:02.994Z,1013.55
2022-09-22T04:40:03.430Z,1013.51
2022-09-22T04:41:03.161Z,1013.53
2022-09-22T04:42:02.485Z,1013.48
2022-09-22T04:43:02.909Z,1013.52
2022-09-22T04:44:02.718Z,1013.52
2022-09-22T04:45:02.493Z,1013.48
2022-09-22T04:46:03.069Z,1013.52
2022-09-22T04:47:02.422Z,1013.50
2022-09-22T04:48:02.575Z,1013.49
2022-09-22T04:49:02.494Z,1013.53
2022-09-22T04:50:02.233Z,1013.43
2022-09-22T04:51:02.047Z,1013.48
2022-09-22T04:52:02.357Z,1013.55
2022-09-22T04:53:02.262Z,1013.49
2022-09-22T04:54:02.701Z,1013.50
2022-09-22T04:55:02.495Z,1013.46
2022-09-22T04:56:02.644Z,1013.49
2022-09-22T04:57:03.117Z,1013.47
2022-09-22T04:58:02.992Z,1013.44
2022-09-22T04:59:03.002Z,1013.48
2022-09-22T05:00:02.836Z,1013.51
2022-09-22T05:01:03.250Z,1013.51
2022-09-22T05:02:02.769Z,1013.46
2022-09-22T05:03:03.031Z,1013.46
2022-09-22T05:04:02.563Z,1013.48
2022-09-22T05:05:03.013Z,1013.49
2022-09-22T05:06:02.641Z,1013.49
2022-09-22T05:07:03.269Z,1013.46
2022-09-22T05:08:03.075Z,1013.46
2022-09-22T05:09:02.974Z,1013.52
2022-09-22T05:10:02.843Z,1013.53
2022-09-22T05:11:03.400Z,1013.49
2022-09-22T05:12:02.971Z,1013.47
2022-09-22T05:13:02.861Z,1013.51
2022-09-22T05:14:02.642Z,1013.54
2022-09-22T05:15:03.127Z,1013.55
2022-09-22T05:16:03.239Z,1013.51
2022-09-22T05:17:02.651Z,1013.53
2022-09-22T05:18:02.650Z,1013.48
2022-09-22T05:19:02.227Z,1013.54
2022-09-22T05:20:02.729Z,1013.50
2022-09-22T05:21:02.275Z,1013.54
2022-09-22T05:22:02.912Z,1013.54
2022-09-22T05:23:02.598Z,1013.58
2022-09-22T05:24:02.303Z,1013.57
2022-09-22T05:25:02.221Z,1013.61
2022-09-22T05:26:02.736Z,1013.54
2022-09-22T05:27:03.257Z,1013.57
2022-09-22T05:28:03.096Z,1013.57
2022-09-22T05:29:03.118Z,1013.57
2022-09-22T05:30:02.978Z,1013.59
2022-09-22T05:31:02.809Z,1013.54
2022-09-22T05:32:03.471Z,1013.58
2022-09-22T05:33:03.422Z,1013.59
2022-09-22T05:34:03.259Z,1013.61
2022-09-22T05:35:02.854Z,1013.66
2022-09-22T05:36:03.117Z,1013.61
2022-09-22T05:37:02.758Z,1013.62
2022-09-22T05:38:02.350Z,1013.67
2022-09-22T05:39:02.799Z,1013.63
2022-09-22T05:40:02.501Z,1013.67
2022-09-22T05:41:02.282Z,1013.64
2022-09-22T05:42:02.269Z,1013.64
2022-09-22T05:43:02.515Z,1013.66
2022-09-22T05:44:02.565Z,1013.68
2022-09-22T05:45:02.511Z,1013.67
2022-09-22T05:46:02.522Z,1013.66
2022-09-22T05:47:03.150Z,1013.67
2022-09-22T05:48:02.544Z,1013.65
2022-09-22T05:49:03.112Z,1013.65
2022-09-22T05:50:02.866Z,1013.60
2022-09-22T05:51:02.587Z,1013.67
2022-09-22T05:52:03.394Z,1013.66
2022-09-22T05:53:02.993Z,1013.63
2022-09-22T05:54:02.810Z,1013.65
2022-09-22T05:55:03.338Z,1013.65
2022-09-22T05:56:03.021Z,1013.65
2022-09-22T05:57:02.606Z,1013.63
2022-09-22T05:58:02.319Z,1013.66
2022-09-22T05:59:02.185Z,1013.68
2022-09-22T06:00:02.042Z,1013.68
2022-09-22T06:01:02.136Z,1013.71
2022-09-22T06:02:13.366Z,1013.67
2022-09-22T06:03:02.127Z,1013.72
2022-09-22T06:04:02.231Z,1013.66
2022-09-22T06:05:02.128Z,1013.69
2022-09-22T06:06:02.674Z,1013.69
2022-09-22T06:07:02.966Z,1013.73
2022-09-22T06:08:02.527Z,1013.71
2022-09-22T06:09:02.747Z,1013.68
2022-09-22T06:10:02.590Z,1013.72
2022-09-22T06:11:02.430Z,1013.74
2022-09-22T06:12:02.954Z,1013.70
2022-09-22T06:13:02.304Z,1013.70
2022-09-22T06:14:02.822Z,1013.71
2022-09-22T06:15:02.595Z,1013.76
2022-09-22T06:16:02.509Z,1013.74
2022-09-22T06:17:02.352Z,1013.70
2022-09-22T06:18:02.597Z,1013.73
2022-09-22T06:19:02.458Z,1013.76
2022-09-22T06:20:02.892Z,1013.80
2022-09-22T06:21:02.768Z,1013.83
2022-09-22T06:22:02.021Z,1013.80
2022-09-22T06:23:01.908Z,1013.83
2022-09-22T06:24:01.911Z,1013.80
2022-09-22T06:25:01.924Z,1013.80
2022-09-22T06:26:02.455Z,1013.84
2022-09-22T06:27:02.418Z,1013.82
2022-09-22T06:28:02.390Z,1013.79
2022-09-22T06:29:02.712Z,1013.78
2022-09-22T06:30:02.578Z,1013.76
2022-09-22T06:31:02.486Z,1013.77
2022-09-22T06:32:02.186Z,1013.77
2022-09-22T06:33:02.163Z,1013.72
2022-09-22T06:34:05.498Z,1013.75
2022-09-22T06:35:02.630Z,1013.71
2022-09-22T06:36:02.293Z,1013.71
2022-09-22T06:37:02.152Z,1013.73
2022-09-22T06:38:02.663Z,1013.72
2022-09-22T06:39:02.379Z,1013.71
2022-09-22T06:40:02.370Z,1013.71
2022-09-22T06:41:02.334Z,1013.67
2022-09-22T06:42:02.188Z,1013.67
2022-09-22T06:43:02.611Z,1013.67
2022-09-22T06:44:02.677Z,1013.60
2022-09-22T06:45:02.442Z,1013.68
2022-09-22T06:46:02.466Z,1013.63
2022-09-22T06:47:02.375Z,1013.66
2022-09-22T06:48:06.311Z,1013.61
2022-09-22T06:49:02.413Z,1013.65
2022-09-22T06:50:02.392Z,1013.60
2022-09-22T06:51:02.365Z,1013.64
2022-09-22T06:52:02.055Z,1013.57
2022-09-22T06:53:02.022Z,1013.64
2022-09-22T06:54:02.091Z,1013.65
2022-09-22T06:55:02.166Z,1013.63
2022-09-22T06:56:02.119Z,1013.59
2022-09-22T06:57:02.154Z,1013.65
2022-09-22T06:58:02.801Z,1013.65
2022-09-22T06:59:10.622Z,1013.67
2022-09-22T07:00:02.773Z,1013.71
2022-09-22T07:01:05.192Z,1013.68
2022-09-22T07:02:02.674Z,1013.66
2022-09-22T07:03:02.983Z,1013.68
2022-09-22T07:04:02.648Z,1013.66
2022-09-22T07:05:02.612Z,1013.65
2022-09-22T07:06:02.467Z,1013.65
2022-09-22T07:07:02.171Z,1013.63
2022-09-22T07:08:02.055Z,1013.71
2022-09-22T07:09:02.522Z,1013.64
2022-09-22T07:10:02.405Z,1013.58
2022-09-22T07:11:02.568Z,1013.62
2022-09-22T07:12:02.260Z,1013.56
2022-09-22T07:13:02.287Z,1013.55
2022-09-22T07:14:02.296Z,1013.58
2022-09-22T07:15:02.082Z,1013.59
2022-09-22T07:16:02.523Z,1013.59
2022-09-22T07:17:02.877Z,1013.65
2022-09-22T07:18:02.496Z,1013.64
2022-09-22T07:19:02.578Z,1013.69
2022-09-22T07:20:02.613Z,1013.63
2022-09-22T07:21:02.780Z,1013.57
2022-09-22T07:22:02.585Z,1013.64
2022-09-22T07:23:02.344Z,1013.61
2022-09-22T07:24:02.756Z,1013.58
2022-09-22T07:25:02.701Z,1013.52
2022-09-22T07:26:02.492Z,1013.51
2022-09-22T07:27:02.621Z,1013.53
2022-09-22T07:28:02.751Z,1013.55
2022-09-22T07:29:02.847Z,1013.52
2022-09-22T07:30:02.347Z,1013.52
2022-09-22T07:31:02.386Z,1013.57
2022-09-22T07:32:01.895Z,1013.51
2022-09-22T07:33:01.962Z,1013.48
2022-09-22T07:34:01.987Z,1013.50
2022-09-22T07:35:02.217Z,1013.47
2022-09-22T07:36:01.806Z,1013.48
2022-09-22T07:37:02.533Z,1013.51
2022-09-22T07:38:02.719Z,1013.52
2022-09-22T07:39:02.653Z,1013.47
2022-09-22T07:40:02.621Z,1013.49
2022-09-22T07:41:02.314Z,1013.51
2022-09-22T07:42:02.096Z,1013.51
2022-09-22T07:43:02.125Z,1013.46
2022-09-22T07:44:02.087Z,1013.51
2022-09-22T07:45:01.937Z,1013.49
2022-09-22T07:46:02.178Z,1013.51
2022-09-22T07:47:02.777Z,1013.53
2022-09-22T07:48:02.770Z,1013.50
2022-09-22T07:49:02.611Z,1013.48
2022-09-22T07:50:02.555Z,1013.54
2022-09-22T07:51:02.405Z,1013.57
2022-09-22T07:52:02.190Z,1013.50
2022-09-22T07:53:02.249Z,1013.50
2022-09-22T07:54:02.198Z,1013.56
2022-09-22T07:55:02.065Z,1013.53
2022-09-22T07:56:02.454Z,1013.49
2022-09-22T07:57:01.895Z,1013.48
2022-09-22T07:58:02.118Z,1013.51
2022-09-22T07:59:01.938Z,1013.42
2022-09-22T08:00:01.774Z,1013.50
2022-09-22T08:01:01.948Z,1013.48
2022-09-22T08:02:02.706Z,1013.41
2022-09-22T08:03:02.801Z,1013.40
2022-09-22T08:04:02.814Z,1013.45
2022-09-22T08:05:02.865Z,1013.45
2022-09-22T08:06:06.115Z,1013.40
2022-09-22T08:07:02.481Z,1013.36
2022-09-22T08:08:02.503Z,1013.41
2022-09-22T08:09:02.490Z,1013.29
2022-09-22T08:10:02.497Z,1013.34
2022-09-22T08:11:02.421Z,1013.34
2022-09-22T08:12:02.068Z,1013.37
2022-09-22T08:13:01.981Z,1013.33
2022-09-22T08:14:01.801Z,1013.31
2022-09-22T08:15:01.789Z,1013.38
2022-09-22T08:16:01.967Z,1013.37
2022-09-22T08:17:02.692Z,1013.36
2022-09-22T08:18:02.755Z,1013.32
2022-09-22T08:19:02.766Z,1013.36
2022-09-22T08:20:02.749Z,1013.37
2022-09-22T08:21:02.690Z,1013.38
2022-09-22T08:22:02.133Z,1013.35
2022-09-22T08:23:01.931Z,1013.40
2022-09-22T08:24:01.943Z,1013.37
2022-09-22T08:25:02.159Z,1013.38
2022-09-22T08:26:01.868Z,1013.35
2022-09-22T08:27:02.615Z,1013.33
2022-09-22T08:28:02.284Z,1013.29
2022-09-22T08:29:02.282Z,1013.27
2022-09-22T08:30:02.108Z,1013.27
2022-09-22T08:31:02.164Z,1013.26
2022-09-22T08:32:02.270Z,1013.22
2022-09-22T08:33:02.069Z,1013.25
2022-09-22T08:34:02.235Z,1013.21
2022-09-22T08:35:01.917Z,1013.26
2022-09-22T08:36:01.793Z,1013.14
2022-09-22T08:37:02.453Z,1013.20
2022-09-22T08:38:02.357Z,1013.22
2022-09-22T08:39:02.211Z,1013.27
2022-09-22T08:40:02.351Z,1013.20
2022-09-22T08:41:01.969Z,1013.24
2022-09-22T08:42:01.536Z,1013.22
2022-09-22T08:43:02.142Z,1013.26
2022-09-22T08:44:02.201Z,1013.20
2022-09-22T08:45:01.990Z,1013.24
2022-09-22T08:46:01.981Z,1013.20
2022-09-22T08:47:02.651Z,1013.19
2022-09-22T08:48:02.524Z,1013.26
2022-09-22T08:49:02.594Z,1013.25
2022-09-22T08:50:02.635Z,1013.17
2022-09-22T08:51:02.584Z,1013.19
2022-09-22T08:52:02.115Z,1013.22
2022-09-22T08:53:02.259Z,1013.21
2022-09-22T08:54:06.924Z,1013.18
2022-09-22T08:55:02.729Z,1013.26
2022-09-22T08:56:02.477Z,1013.22
2022-09-22T08:57:03.129Z,1013.20
2022-09-22T08:58:02.909Z,1013.21
2022-09-22T08:59:02.610Z,1013.30
2022-09-22T09:00:03.007Z,1013.27
2022-09-22T09:01:02.765Z,1013.24
2022-09-22T09:02:02.048Z,1013.25
2022-09-22T09:03:02.028Z,1013.22
2022-09-22T09:04:02.000Z,1013.26
2022-09-22T09:05:01.992Z,1013.25
2022-09-22T09:06:02.630Z,1013.28
2022-09-22T09:07:02.180Z,1013.32
2022-09-22T09:08:02.528Z,1013.20
2022-09-22T09:09:05.025Z,1013.24
2022-09-22T09:10:02.266Z,1013.28
2022-09-22T09:11:02.596Z,1013.25
2022-09-22T09:12:02.623Z,1013.26
2022-09-22T09:13:03.135Z,1013.28
2022-09-22T09:14:02.805Z,1013.25
2022-09-22T09:15:02.651Z,1013.29
2022-09-22T09:16:02.666Z,1013.27
2022-09-22T09:17:02.078Z,1013.28
2022-09-22T09:18:02.508Z,1013.24
2022-09-22T09:19:02.544Z,1013.26
2022-09-22T09:20:02.440Z,1013.28
2022-09-22T09:21:02.458Z,1013.27
2022-09-22T09:22:02.390Z,1013.25
2022-09-22T09:23:02.374Z,1013.18
2022-09-22T09:26:02.843Z,1013.16
2022-09-22T09:27:01.922Z,1013.16
2022-09-22T09:28:02.082Z,1013.21
2022-09-22T09:29:06.021Z,1013.17
2022-09-22T09:30:02.172Z,1013.17
2022-09-22T09:31:02.394Z,1013.16
2022-09-22T09:32:02.777Z,1013.12
2022-09-22T09:33:02.491Z,1013.14
2022-09-22T09:34:02.403Z,1013.16
2022-09-22T09:35:02.281Z,1013.08
2022-09-22T09:36:02.274Z,1013.12
2022-09-22T09:37:02.072Z,1013.06
2022-09-22T09:38:02.289Z,1013.07
2022-09-22T09:39:02.202Z,1013.05
2022-09-22T09:40:01.936Z,1013.04
2022-09-22T09:41:01.889Z,1012.98
2022-09-22T09:42:02.544Z,1013.00
2022-09-22T09:43:03.377Z,1012.98
2022-09-22T09:44:02.699Z,1012.94
2022-09-22T09:45:02.762Z,1012.96
2022-09-22T09:46:03.029Z,1012.93
2022-09-22T09:47:02.806Z,1012.93
2022-09-22T09:48:03.110Z,1012.85
2022-09-22T09:49:03.121Z,1012.86
2022-09-22T09:50:03.061Z,1012.88
2022-09-22T09:51:02.890Z,1012.90
2022-09-22T09:52:02.326Z,1012.87
2022-09-22T09:53:02.347Z,1012.89
2022-09-22T09:54:02.377Z,1012.87
2022-09-22T09:55:02.330Z,1012.85
2022-09-22T09:56:02.257Z,1012.86
2022-09-22T09:57:02.896Z,1012.84
2022-09-22T09:58:02.898Z,1012.82
2022-09-22T09:59:02.933Z,1012.86
2022-09-22T10:00:02.853Z,1012.78
2022-09-22T10:01:02.869Z,1012.81
2022-09-22T10:02:02.265Z,1012.71
2022-09-22T10:03:02.252Z,1012.74
2022-09-22T10:04:02.263Z,1012.79
2022-09-22T10:05:02.801Z,1012.71
2022-09-22T10:06:02.233Z,1012.71
2022-09-22T10:07:02.465Z,1012.69
2022-09-22T10:08:02.380Z,1012.65
2022-09-22T10:09:02.458Z,1012.60
2022-09-22T10:10:02.350Z,1012.61
2022-09-22T10:11:02.492Z,1012.63
2022-09-22T10:12:02.819Z,1012.58
2022-09-22T10:13:02.779Z,1012.61
2022-09-22T10:14:02.778Z,1012.65
2022-09-22T10:15:02.775Z,1012.58
2022-09-22T10:16:02.884Z,1012.57
2022-09-22T10:17:02.440Z,1012.64
2022-09-22T10:18:02.431Z,1012.67
2022-09-22T10:19:02.300Z,1012.57
2022-09-22T10:20:02.291Z,1012.57
2022-09-22T10:21:02.337Z,1012.54
2022-09-22T10:22:03.037Z,1012.57
2022-09-22T10:23:02.950Z,1012.60
2022-09-22T10:24:02.882Z,1012.54
2022-09-22T10:25:02.810Z,1012.55
2022-09-22T10:26:02.803Z,1012.51
2022-09-22T10:27:05.296Z,1012.47
2022-09-22T10:28:02.387Z,1012.47
2022-09-22T10:29:02.414Z,1012.45
2022-09-22T10:30:02.521Z,1012.45
2022-09-22T10:31:02.394Z,1012.42
2022-09-22T10:32:03.090Z,1012.34
2022-09-22T10:33:03.113Z,1012.38
2022-09-22T10:34:02.613Z,1012.36
2022-09-22T10:35:02.686Z,1012.34
2022-09-22T10:36:03.854Z,1012.37
2022-09-22T10:37:02.463Z,1012.36
2022-09-22T10:38:02.432Z,1012.30
2022-09-22T10:39:02.592Z,1012.32
2022-09-22T10:40:02.576Z,1012.33
2022-09-22T10:41:02.451Z,1012.29
2022-09-22T10:42:03.013Z,1012.31
2022-09-22T10:43:02.642Z,1012.36
2022-09-22T10:44:15.479Z,1012.32
2022-09-22T10:45:03.096Z,1012.20
2022-09-22T10:46:03.214Z,1012.23
2022-09-22T10:47:02.784Z,1012.23
2022-09-22T10:48:02.634Z,1012.19
2022-09-22T10:49:02.631Z,1012.21
2022-09-22T10:50:02.648Z,1012.16
2022-09-22T10:51:02.621Z,1012.18
2022-09-22T10:52:03.236Z,1012.18
2022-09-22T10:53:02.859Z,1012.17
2022-09-22T10:54:02.736Z,1012.13
2022-09-22T10:55:03.183Z,1012.16
2022-09-22T10:56:03.129Z,1012.18
2022-09-22T10:57:02.740Z,1012.15
2022-09-22T10:58:02.502Z,1012.11
2022-09-22T10:59:02.529Z,1012.12
2022-09-22T11:00:02.556Z,1012.09
2022-09-22T11:01:02.516Z,1012.09
2022-09-22T11:02:03.116Z,1012.10
2022-09-22T11:03:02.818Z,1012.11
2022-09-22T11:04:03.146Z,1012.04
2022-09-22T11:05:02.961Z,1012.09
2022-09-22T11:06:02.962Z,1012.06
2022-09-22T11:07:03.661Z,1012.08
2022-09-22T11:08:03.431Z,1012.10
2022-09-22T11:09:03.605Z,1012.06
2022-09-22T11:10:03.231Z,1011.97
2022-09-22T11:11:03.531Z,1011.96
2022-09-22T11:12:03.843Z,1012.00
2022-09-22T11:13:03.324Z,1011.99
2022-09-22T11:14:03.322Z,1011.98
2022-09-22T11:15:03.479Z,1012.02
2022-09-22T11:16:03.337Z,1011.97
2022-09-22T11:17:02.398Z,1012.01
2022-09-22T11:18:02.428Z,1011.99
2022-09-22T11:19:02.464Z,1012.00
2022-09-22T11:20:02.481Z,1011.93
2022-09-22T11:21:02.427Z,1011.95
2022-09-22T11:22:02.466Z,1011.92
2022-09-22T11:23:02.750Z,1011.95
2022-09-22T11:24:02.734Z,1011.95
2022-09-22T11:25:02.705Z,1011.91
2022-09-22T11:26:02.497Z,1011.93
2022-09-22T11:27:02.970Z,1011.96
2022-09-22T11:28:03.451Z,1011.84
2022-09-22T11:29:03.361Z,1011.86
2022-09-22T11:30:10.526Z,1011.89
2022-09-22T11:31:03.462Z,1011.90
2022-09-22T11:32:03.416Z,1011.88
2022-09-22T11:33:02.432Z,1011.93
2022-09-22T11:34:02.676Z,1011.82
2022-09-22T11:35:02.693Z,1011.84
2022-09-22T11:36:02.553Z,1011.88
2022-09-22T11:37:02.592Z,1011.85
2022-09-22T11:38:03.171Z,1011.87
2022-09-22T11:39:03.156Z,1011.79
2022-09-22T11:40:03.340Z,1011.79
2022-09-22T11:41:03.103Z,1011.79
2022-09-22T11:42:03.012Z,1011.81
2022-09-22T11:43:04.533Z,1011.69
2022-09-22T11:44:03.822Z,1011.73
2022-09-22T11:45:03.496Z,1011.69
2022-09-22T11:46:03.592Z,1011.65
2022-09-22T11:47:03.389Z,1011.69
2022-09-22T11:48:02.580Z,1011.70
2022-09-22T11:49:03.190Z,1011.71
2022-09-22T11:50:02.819Z,1011.74
2022-09-22T11:51:02.875Z,1011.68
2022-09-22T11:52:03.128Z,1011.64
2022-09-22T11:53:03.166Z,1011.65
2022-09-22T11:54:03.109Z,1011.62
2022-09-22T11:55:03.050Z,1011.69
2022-09-22T11:56:03.219Z,1011.69
2022-09-22T11:57:03.199Z,1011.63
2022-09-22T11:58:03.245Z,1011.63
2022-09-22T11:59:03.328Z,1011.65
2022-09-22T12:00:03.410Z,1011.59
2022-09-22T12:01:03.403Z,1011.64
2022-09-22T12:02:03.255Z,1011.56
2022-09-22T12:03:03.771Z,1011.58
2022-09-22T12:04:03.578Z,1011.64
2022-09-22T12:05:03.270Z,1011.56
2022-09-22T12:06:03.141Z,1011.56
2022-09-22T12:07:03.483Z,1011.53